Russell, KS (67665)

10:52 PM CST on December 08, 2016 (GMT -0600)
Russell Municipal | | Change Station

Elev 1864 ft 38.87 °N, 98.81 °W | Updated 59 minutes ago

Mostly Cloudy
Mostly Cloudy
13 °F
Feels Like 13 °F
N
0
Wind Variable Wind from North

Today
High -- | Low -- °F
--% Chance of Precip.
Yesterday
High -- | Low -- °F
Precip. -- in
Pressure 30.72 in
Visibility 10.0 miles
Clouds Clear
Dew Point 5 °F
Humidity 71%
Rainfall 0.00 in
Snow Depth Not available.
7:41 AM 5:13 PM
Waxing Gibbous, 70% visible
METAR KRSL 090353Z AUTO 00000KT 10SM CLR M11/M15 A3060 RMK AO2 SLP402 T11061150 TSNO
Pressure 30.72 in
Visibility 10.0 miles
Clouds Clear
Dew Point 5 °F
Humidity 71%
Rainfall 0.00 in
Snow Depth Not available.
7:41 AM 5:13 PM
Waxing Gibbous, 70% visible
METAR KRSL 090353Z AUTO 00000KT 10SM CLR M11/M15 A3060 RMK AO2 SLP402 T11061150 TSNO

10-Day Weather Forecast

Almanac

Astronomy

Dec. 08, 2016 Rise Set
Actual Time
Civil Twilight
Nautical Twilight
Astronomical Twilight
Moon
Length of Visible Light
Length of Day
Tomorrow will be .
, % of the Moon is Illuminated

Today's Extremes

State Highs State Lows

Community

WunderPhotos

Upload Photos

1,956,370 photos uploaded!

WunderBlog® & News

Nearby

Air Quality

  Air Quality AQ Index Pollutant
Not available.

Snow Depth

Station Depth Elevation

Earthquake Activity

City Distance Mag. Time & Date
Minimum magnitude displayed is 2.5.

Coastal Water Temperatures

Place Temperature

Stations

Nearby Weather Stations

Station Location Temp. Windchill Dew Point Humidity Wind Precip. Elev Updated Type
                   

Watches & Warnings

There are currently no watches in effect.